sensor_id;sensor_type;location;lat;lon;timestamp;P1;durP1;ratioP1;P2;durP2;ratioP2
38847;SDS011;24602;44.780;20.408;2022-09-21T00:02:17;7.13;;;4.30;;
38847;SDS011;24602;44.780;20.408;2022-09-21T00:04:48;6.55;;;4.28;;
38847;SDS011;24602;44.780;20.408;2022-09-21T00:07:22;6.65;;;4.50;;
38847;SDS011;24602;44.780;20.408;2022-09-21T00:09:52;6.25;;;4.28;;
38847;SDS011;24602;44.780;20.408;2022-09-21T00:12:25;6.32;;;4.10;;
38847;SDS011;24602;44.780;20.408;2022-09-21T00:14:55;9.48;;;5.13;;
38847;SDS011;24602;44.780;20.408;2022-09-21T00:17:26;6.85;;;4.40;;
38847;SDS011;24602;44.780;20.408;2022-09-21T00:19:58;7.32;;;4.60;;
38847;SDS011;24602;44.780;20.408;2022-09-21T00:22:43;9.45;;;4.47;;
38847;SDS011;24602;44.780;20.408;2022-09-21T00:25:13;8.40;;;4.55;;
38847;SDS011;24602;44.780;20.408;2022-09-21T00:27:44;9.02;;;4.68;;
38847;SDS011;24602;44.780;20.408;2022-09-21T00:30:17;7.50;;;5.10;;
38847;SDS011;24602;44.780;20.408;2022-09-21T00:32:47;8.65;;;4.90;;
38847;SDS011;24602;44.780;20.408;2022-09-21T00:35:17;7.22;;;4.78;;
38847;SDS011;24602;44.780;20.408;2022-09-21T00:37:49;8.75;;;4.72;;
38847;SDS011;24602;44.780;20.408;2022-09-21T00:40:20;10.82;;;5.05;;
38847;SDS011;24602;44.780;20.408;2022-09-21T00:42:52;12.43;;;5.40;;
38847;SDS011;24602;44.780;20.408;2022-09-21T00:45:43;8.05;;;4.05;;
38847;SDS011;24602;44.780;20.408;2022-09-21T00:48:16;11.30;;;3.95;;
38847;SDS011;24602;44.780;20.408;2022-09-21T00:50:47;7.40;;;4.43;;
38847;SDS011;24602;44.780;20.408;2022-09-21T00:53:21;7.78;;;4.47;;
38847;SDS011;24602;44.780;20.408;2022-09-21T00:55:55;7.72;;;4.30;;
38847;SDS011;24602;44.780;20.408;2022-09-21T00:58:29;8.77;;;4.43;;
38847;SDS011;24602;44.780;20.408;2022-09-21T01:01:00;6.28;;;4.22;;
38847;SDS011;24602;44.780;20.408;2022-09-21T01:03:29;6.68;;;4.22;;
38847;SDS011;24602;44.780;20.408;2022-09-21T01:06:02;5.85;;;4.05;;
38847;SDS011;24602;44.780;20.408;2022-09-21T01:08:33;7.18;;;4.40;;
38847;SDS011;24602;44.780;20.408;2022-09-21T01:32:50;6.20;;;3.20;;
38847;SDS011;24602;44.780;20.408;2022-09-21T01:35:49;7.80;;;3.53;;
38847;SDS011;24602;44.780;20.408;2022-09-21T01:38:55;6.18;;;3.65;;
38847;SDS011;24602;44.780;20.408;2022-09-21T01:41:43;5.20;;;3.33;;
38847;SDS011;24602;44.780;20.408;2022-09-21T01:44:21;5.35;;;3.47;;
38847;SDS011;24602;44.780;20.408;2022-09-21T01:46:55;4.60;;;3.13;;
38847;SDS011;24602;44.780;20.408;2022-09-21T01:49:35;6.20;;;3.75;;
38847;SDS011;24602;44.780;20.408;2022-09-21T01:55:07;6.70;;;3.40;;
38847;SDS011;24602;44.780;20.408;2022-09-21T01:57:54;5.60;;;3.30;;
38847;SDS011;24602;44.780;20.408;2022-09-21T02:00:53;5.43;;;3.40;;
38847;SDS011;24602;44.780;20.408;2022-09-21T02:03:37;6.00;;;3.22;;
38847;SDS011;24602;44.780;20.408;2022-09-21T02:06:27;5.35;;;3.13;;
38847;SDS011;24602;44.780;20.408;2022-09-21T02:08:56;6.72;;;3.25;;
38847;SDS011;24602;44.780;20.408;2022-09-21T02:11:25;5.05;;;3.40;;
38847;SDS011;24602;44.780;20.408;2022-09-21T02:13:56;4.22;;;3.00;;
38847;SDS011;24602;44.780;20.408;2022-09-21T02:19:39;11.63;;;3.45;;
38847;SDS011;24602;44.780;20.408;2022-09-21T02:25:17;4.68;;;2.60;;
38847;SDS011;24602;44.780;20.408;2022-09-21T02:27:57;6.70;;;3.10;;
38847;SDS011;24602;44.780;20.408;2022-09-21T02:30:44;6.45;;;3.10;;
38847;SDS011;24602;44.780;20.408;2022-09-21T02:33:25;5.13;;;3.17;;
38847;SDS011;24602;44.780;20.408;2022-09-21T02:36:29;5.18;;;2.75;;
38847;SDS011;24602;44.780;20.408;2022-09-21T02:39:08;6.47;;;2.80;;
38847;SDS011;24602;44.780;20.408;2022-09-21T02:45:21;5.28;;;2.78;;
38847;SDS011;24602;44.780;20.408;2022-09-21T02:47:49;6.18;;;2.90;;
38847;SDS011;24602;44.780;20.408;2022-09-21T02:50:53;6.38;;;2.53;;
38847;SDS011;24602;44.780;20.408;2022-09-21T02:53:35;6.03;;;3.00;;
38847;SDS011;24602;44.780;20.408;2022-09-21T02:56:10;6.88;;;2.97;;
38847;SDS011;24602;44.780;20.408;2022-09-21T02:58:50;4.40;;;2.65;;
38847;SDS011;24602;44.780;20.408;2022-09-21T03:01:33;5.07;;;2.65;;
38847;SDS011;24602;44.780;20.408;2022-09-21T03:04:02;3.70;;;2.63;;
38847;SDS011;24602;44.780;20.408;2022-09-21T03:06:32;7.72;;;2.53;;
38847;SDS011;24602;44.780;20.408;2022-09-21T03:09:01;10.18;;;2.72;;
38847;SDS011;24602;44.780;20.408;2022-09-21T03:11:29;3.50;;;2.75;;
38847;SDS011;24602;44.780;20.408;2022-09-21T03:13:56;5.68;;;3.25;;
38847;SDS011;24602;44.780;20.408;2022-09-21T03:16:27;5.65;;;3.17;;
38847;SDS011;24602;44.780;20.408;2022-09-21T03:18:56;5.80;;;2.80;;
38847;SDS011;24602;44.780;20.408;2022-09-21T03:21:26;6.20;;;2.88;;
38847;SDS011;24602;44.780;20.408;2022-09-21T03:24:00;4.65;;;3.03;;
38847;SDS011;24602;44.780;20.408;2022-09-21T03:26:30;3.53;;;2.63;;
38847;SDS011;24602;44.780;20.408;2022-09-21T03:29:02;3.78;;;2.70;;
38847;SDS011;24602;44.780;20.408;2022-09-21T03:31:36;7.03;;;2.58;;
38847;SDS011;24602;44.780;20.408;2022-09-21T03:34:10;4.07;;;2.60;;
38847;SDS011;24602;44.780;20.408;2022-09-21T03:36:42;5.80;;;2.75;;
38847;SDS011;24602;44.780;20.408;2022-09-21T03:39:11;3.00;;;2.65;;
38847;SDS011;24602;44.780;20.408;2022-09-21T03:41:42;7.20;;;3.20;;
38847;SDS011;24602;44.780;20.408;2022-09-21T03:44:11;9.35;;;3.00;;
38847;SDS011;24602;44.780;20.408;2022-09-21T03:46:46;7.55;;;3.10;;
38847;SDS011;24602;44.780;20.408;2022-09-21T03:49:20;5.85;;;3.42;;
38847;SDS011;24602;44.780;20.408;2022-09-21T03:51:52;5.75;;;3.20;;
38847;SDS011;24602;44.780;20.408;2022-09-21T03:54:27;7.45;;;3.45;;
38847;SDS011;24602;44.780;20.408;2022-09-21T03:56:57;5.45;;;3.70;;
38847;SDS011;24602;44.780;20.408;2022-09-21T03:59:29;8.98;;;4.18;;
38847;SDS011;24602;44.780;20.408;2022-09-21T04:01:56;5.80;;;3.42;;
38847;SDS011;24602;44.780;20.408;2022-09-21T04:04:27;5.78;;;3.40;;
38847;SDS011;24602;44.780;20.408;2022-09-21T04:06:58;5.95;;;3.58;;
38847;SDS011;24602;44.780;20.408;2022-09-21T04:09:27;5.20;;;3.30;;
38847;SDS011;24602;44.780;20.408;2022-09-21T04:12:00;4.82;;;3.35;;
38847;SDS011;24602;44.780;20.408;2022-09-21T04:14:31;7.60;;;3.30;;
38847;SDS011;24602;44.780;20.408;2022-09-21T04:17:00;8.93;;;3.72;;
38847;SDS011;24602;44.780;20.408;2022-09-21T04:19:31;6.80;;;3.97;;
38847;SDS011;24602;44.780;20.408;2022-09-21T04:22:01;4.57;;;3.25;;
38847;SDS011;24602;44.780;20.408;2022-09-21T04:24:31;5.28;;;3.45;;
38847;SDS011;24602;44.780;20.408;2022-09-21T04:27:03;8.15;;;3.95;;
38847;SDS011;24602;44.780;20.408;2022-09-21T04:29:35;8.10;;;3.75;;
38847;SDS011;24602;44.780;20.408;2022-09-21T04:32:09;7.03;;;3.75;;
38847;SDS011;24602;44.780;20.408;2022-09-21T04:34:37;4.82;;;3.83;;
38847;SDS011;24602;44.780;20.408;2022-09-21T04:37:07;6.82;;;3.60;;
38847;SDS011;24602;44.780;20.408;2022-09-21T04:39:40;5.03;;;3.55;;
38847;SDS011;24602;44.780;20.408;2022-09-21T04:42:10;8.25;;;4.18;;
38847;SDS011;24602;44.780;20.408;2022-09-21T04:44:42;9.10;;;4.10;;
38847;SDS011;24602;44.780;20.408;2022-09-21T04:47:11;4.20;;;3.25;;
38847;SDS011;24602;44.780;20.408;2022-09-21T04:49:42;6.85;;;4.15;;
38847;SDS011;24602;44.780;20.408;2022-09-21T04:52:11;6.95;;;3.88;;
38847;SDS011;24602;44.780;20.408;2022-09-21T04:54:46;8.07;;;4.47;;
38847;SDS011;24602;44.780;20.408;2022-09-21T04:57:19;6.70;;;3.60;;
38847;SDS011;24602;44.780;20.408;2022-09-21T04:59:49;9.15;;;4.07;;
38847;SDS011;24602;44.780;20.408;2022-09-21T05:02:17;4.65;;;3.30;;
38847;SDS011;24602;44.780;20.408;2022-09-21T05:04:48;5.93;;;3.83;;
38847;SDS011;24602;44.780;20.408;2022-09-21T05:07:17;12.52;;;3.58;;
38847;SDS011;24602;44.780;20.408;2022-09-21T05:09:50;6.35;;;3.88;;
38847;SDS011;24602;44.780;20.408;2022-09-21T05:12:31;11.20;;;4.85;;
38847;SDS011;24602;44.780;20.408;2022-09-21T05:15:09;5.80;;;3.60;;
38847;SDS011;24602;44.780;20.408;2022-09-21T05:17:42;7.45;;;3.63;;
38847;SDS011;24602;44.780;20.408;2022-09-21T05:20:17;8.70;;;4.00;;
38847;SDS011;24602;44.780;20.408;2022-09-21T05:22:46;7.90;;;4.13;;
38847;SDS011;24602;44.780;20.408;2022-09-21T05:25:15;6.05;;;3.50;;
38847;SDS011;24602;44.780;20.408;2022-09-21T05:27:46;4.63;;;3.00;;
38847;SDS011;24602;44.780;20.408;2022-09-21T05:30:17;6.50;;;3.40;;
38847;SDS011;24602;44.780;20.408;2022-09-21T05:32:48;6.38;;;3.10;;
38847;SDS011;24602;44.780;20.408;2022-09-21T05:36:19;5.72;;;2.85;;
38847;SDS011;24602;44.780;20.408;2022-09-21T05:38:33;3.75;;;2.42;;
38847;SDS011;24602;44.780;20.408;2022-09-21T05:41:01;8.95;;;2.97;;
38847;SDS011;24602;44.780;20.408;2022-09-21T05:43:34;7.40;;;3.47;;
38847;SDS011;24602;44.780;20.408;2022-09-21T05:46:17;8.88;;;3.30;;
38847;SDS011;24602;44.780;20.408;2022-09-21T05:58:39;4.60;;;2.72;;
38847;SDS011;24602;44.780;20.408;2022-09-21T06:04:22;5.18;;;3.15;;
38847;SDS011;24602;44.780;20.408;2022-09-21T06:06:54;5.22;;;3.35;;
38847;SDS011;24602;44.780;20.408;2022-09-21T06:09:25;5.10;;;3.63;;
38847;SDS011;24602;44.780;20.408;2022-09-21T06:11:54;10.63;;;3.40;;
38847;SDS011;24602;44.780;20.408;2022-09-21T06:14:26;7.00;;;2.90;;
38847;SDS011;24602;44.780;20.408;2022-09-21T06:16:56;3.75;;;3.20;;
38847;SDS011;24602;44.780;20.408;2022-09-21T06:19:26;3.53;;;2.85;;
38847;SDS011;24602;44.780;20.408;2022-09-21T06:21:56;2.78;;;2.33;;
38847;SDS011;24602;44.780;20.408;2022-09-21T06:24:24;4.95;;;2.60;;
38847;SDS011;24602;44.780;20.408;2022-09-21T06:26:54;3.75;;;3.05;;
38847;SDS011;24602;44.780;20.408;2022-09-21T06:29:23;5.57;;;2.42;;
38847;SDS011;24602;44.780;20.408;2022-09-21T06:31:56;3.63;;;2.47;;
38847;SDS011;24602;44.780;20.408;2022-09-21T06:34:27;4.60;;;3.10;;
38847;SDS011;24602;44.780;20.408;2022-09-21T06:36:58;3.67;;;2.63;;
38847;SDS011;24602;44.780;20.408;2022-09-21T06:39:26;3.38;;;2.42;;
38847;SDS011;24602;44.780;20.408;2022-09-21T06:41:56;6.90;;;2.58;;
38847;SDS011;24602;44.780;20.408;2022-09-21T06:44:28;6.30;;;2.70;;
38847;SDS011;24602;44.780;20.408;2022-09-21T06:47:01;6.55;;;2.80;;
38847;SDS011;24602;44.780;20.408;2022-09-21T06:49:31;4.47;;;2.70;;
38847;SDS011;24602;44.780;20.408;2022-09-21T06:52:09;7.10;;;2.80;;
38847;SDS011;24602;44.780;20.408;2022-09-21T06:54:37;5.85;;;2.80;;
38847;SDS011;24602;44.780;20.408;2022-09-21T06:57:09;4.93;;;3.22;;
38847;SDS011;24602;44.780;20.408;2022-09-21T06:59:37;6.10;;;3.28;;
38847;SDS011;24602;44.780;20.408;2022-09-21T07:02:08;8.73;;;3.17;;
38847;SDS011;24602;44.780;20.408;2022-09-21T07:04:40;6.53;;;2.70;;
38847;SDS011;24602;44.780;20.408;2022-09-21T07:07:13;5.72;;;3.38;;
38847;SDS011;24602;44.780;20.408;2022-09-21T07:09:45;4.97;;;3.00;;
38847;SDS011;24602;44.780;20.408;2022-09-21T07:12:38;5.30;;;3.25;;
38847;SDS011;24602;44.780;20.408;2022-09-21T07:15:10;6.18;;;2.78;;
38847;SDS011;24602;44.780;20.408;2022-09-21T07:17:44;5.32;;;2.90;;
38847;SDS011;24602;44.780;20.408;2022-09-21T07:20:18;7.00;;;3.50;;
38847;SDS011;24602;44.780;20.408;2022-09-21T07:22:51;4.43;;;2.90;;
38847;SDS011;24602;44.780;20.408;2022-09-21T07:25:25;5.28;;;2.97;;
38847;SDS011;24602;44.780;20.408;2022-09-21T07:27:55;7.78;;;3.33;;
38847;SDS011;24602;44.780;20.408;2022-09-21T07:30:26;6.40;;;2.97;;
38847;SDS011;24602;44.780;20.408;2022-09-21T07:32:57;5.25;;;3.28;;
38847;SDS011;24602;44.780;20.408;2022-09-21T07:35:27;3.95;;;3.13;;
38847;SDS011;24602;44.780;20.408;2022-09-21T07:37:59;6.97;;;3.30;;
38847;SDS011;24602;44.780;20.408;2022-09-21T07:40:30;7.53;;;3.65;;
38847;SDS011;24602;44.780;20.408;2022-09-21T07:43:01;6.63;;;3.63;;
38847;SDS011;24602;44.780;20.408;2022-09-21T07:45:33;6.63;;;3.75;;
38847;SDS011;24602;44.780;20.408;2022-09-21T07:48:05;8.30;;;3.65;;
38847;SDS011;24602;44.780;20.408;2022-09-21T07:50:37;6.40;;;3.45;;
38847;SDS011;24602;44.780;20.408;2022-09-21T07:53:05;6.13;;;3.95;;
38847;SDS011;24602;44.780;20.408;2022-09-21T07:55:34;6.93;;;4.55;;
38847;SDS011;24602;44.780;20.408;2022-09-21T07:58:04;6.85;;;5.05;;
38847;SDS011;24602;44.780;20.408;2022-09-21T08:01:03;8.05;;;4.47;;
38847;SDS011;24602;44.780;20.408;2022-09-21T08:03:38;8.90;;;5.10;;
38847;SDS011;24602;44.780;20.408;2022-09-21T08:06:09;5.97;;;4.63;;
38847;SDS011;24602;44.780;20.408;2022-09-21T08:08:41;9.43;;;5.30;;
38847;SDS011;24602;44.780;20.408;2022-09-21T08:11:15;7.28;;;4.53;;
38847;SDS011;24602;44.780;20.408;2022-09-21T08:13:47;5.65;;;4.63;;
38847;SDS011;24602;44.780;20.408;2022-09-21T08:16:17;6.25;;;4.78;;
38847;SDS011;24602;44.780;20.408;2022-09-21T08:18:48;10.68;;;4.88;;
38847;SDS011;24602;44.780;20.408;2022-09-21T08:21:19;5.45;;;4.47;;
38847;SDS011;24602;44.780;20.408;2022-09-21T08:23:48;9.60;;;4.63;;
38847;SDS011;24602;44.780;20.408;2022-09-21T08:26:19;7.07;;;4.57;;
38847;SDS011;24602;44.780;20.408;2022-09-21T08:28:48;14.70;;;5.60;;
38847;SDS011;24602;44.780;20.408;2022-09-21T08:31:19;6.20;;;5.05;;
38847;SDS011;24602;44.780;20.408;2022-09-21T08:33:54;5.90;;;5.15;;
38847;SDS011;24602;44.780;20.408;2022-09-21T08:36:24;8.10;;;5.10;;
38847;SDS011;24602;44.780;20.408;2022-09-21T08:38:53;8.35;;;4.70;;
38847;SDS011;24602;44.780;20.408;2022-09-21T08:44:43;10.85;;;4.93;;
38847;SDS011;24602;44.780;20.408;2022-09-21T08:47:29;5.28;;;4.50;;
38847;SDS011;24602;44.780;20.408;2022-09-21T08:50:11;8.98;;;5.07;;
38847;SDS011;24602;44.780;20.408;2022-09-21T08:53:04;8.30;;;5.15;;
38847;SDS011;24602;44.780;20.408;2022-09-21T08:55:37;8.63;;;5.68;;
38847;SDS011;24602;44.780;20.408;2022-09-21T08:58:10;11.30;;;5.10;;
38847;SDS011;24602;44.780;20.408;2022-09-21T09:21:39;4.47;;;3.33;;
38847;SDS011;24602;44.780;20.408;2022-09-21T09:27:14;4.95;;;3.80;;
38847;SDS011;24602;44.780;20.408;2022-09-21T09:33:20;7.55;;;4.50;;
38847;SDS011;24602;44.780;20.408;2022-09-21T09:36:08;8.50;;;4.70;;
38847;SDS011;24602;44.780;20.408;2022-09-21T09:50:52;6.65;;;4.15;;
38847;SDS011;24602;44.780;20.408;2022-09-21T09:53:25;4.55;;;3.40;;
38847;SDS011;24602;44.780;20.408;2022-09-21T09:55:57;5.70;;;3.60;;
38847;SDS011;24602;44.780;20.408;2022-09-21T10:04:13;6.00;;;3.17;;
38847;SDS011;24602;44.780;20.408;2022-09-21T10:06:44;5.05;;;4.15;;
38847;SDS011;24602;44.780;20.408;2022-09-21T10:09:31;5.32;;;3.80;;
38847;SDS011;24602;44.780;20.408;2022-09-21T10:12:02;8.55;;;3.72;;
38847;SDS011;24602;44.780;20.408;2022-09-21T10:14:53;5.90;;;3.90;;
38847;SDS011;24602;44.780;20.408;2022-09-21T10:17:25;5.47;;;3.97;;
38847;SDS011;24602;44.780;20.408;2022-09-21T10:20:03;5.78;;;3.40;;
38847;SDS011;24602;44.780;20.408;2022-09-21T10:25:16;4.00;;;3.50;;
38847;SDS011;24602;44.780;20.408;2022-09-21T10:27:49;7.30;;;3.80;;
38847;SDS011;24602;44.780;20.408;2022-09-21T10:30:34;4.65;;;3.92;;
38847;SDS011;24602;44.780;20.408;2022-09-21T10:33:18;5.07;;;3.42;;
38847;SDS011;24602;44.780;20.408;2022-09-21T10:35:50;7.00;;;3.80;;
38847;SDS011;24602;44.780;20.408;2022-09-21T10:38:24;5.32;;;4.38;;
38847;SDS011;24602;44.780;20.408;2022-09-21T10:41:00;5.10;;;3.92;;
38847;SDS011;24602;44.780;20.408;2022-09-21T10:46:14;8.35;;;4.60;;
38847;SDS011;24602;44.780;20.408;2022-09-21T10:48:57;6.45;;;4.25;;
38847;SDS011;24602;44.780;20.408;2022-09-21T10:51:27;4.72;;;3.80;;
38847;SDS011;24602;44.780;20.408;2022-09-21T10:54:00;5.47;;;4.22;;
38847;SDS011;24602;44.780;20.408;2022-09-21T10:56:34;7.22;;;4.47;;
38847;SDS011;24602;44.780;20.408;2022-09-21T11:01:56;4.78;;;3.78;;
38847;SDS011;24602;44.780;20.408;2022-09-21T11:07:22;6.53;;;3.83;;
38847;SDS011;24602;44.780;20.408;2022-09-21T11:10:51;6.93;;;4.43;;
38847;SDS011;24602;44.780;20.408;2022-09-21T11:13:53;4.72;;;3.60;;
38847;SDS011;24602;44.780;20.408;2022-09-21T11:16:50;8.32;;;3.97;;
38847;SDS011;24602;44.780;20.408;2022-09-21T11:19:49;8.55;;;5.20;;
38847;SDS011;24602;44.780;20.408;2022-09-21T11:22:36;6.32;;;4.80;;
38847;SDS011;24602;44.780;20.408;2022-09-21T11:25:27;7.20;;;4.80;;
38847;SDS011;24602;44.780;20.408;2022-09-21T11:37:17;5.85;;;3.85;;
38847;SDS011;24602;44.780;20.408;2022-09-21T11:51:35;5.65;;;4.32;;
38847;SDS011;24602;44.780;20.408;2022-09-21T11:54:27;10.35;;;5.40;;
38847;SDS011;24602;44.780;20.408;2022-09-21T11:57:10;5.60;;;4.60;;
38847;SDS011;24602;44.780;20.408;2022-09-21T12:00:17;4.07;;;3.63;;
38847;SDS011;24602;44.780;20.408;2022-09-21T12:09:02;6.20;;;4.47;;
38847;SDS011;24602;44.780;20.408;2022-09-21T12:11:43;5.93;;;4.30;;
38847;SDS011;24602;44.780;20.408;2022-09-21T12:20:52;8.32;;;6.10;;
38847;SDS011;24602;44.780;20.408;2022-09-21T12:23:45;10.77;;;6.00;;
38847;SDS011;24602;44.780;20.408;2022-09-21T12:26:19;6.40;;;5.65;;
38847;SDS011;24602;44.780;20.408;2022-09-21T12:34:57;5.75;;;4.20;;
38847;SDS011;24602;44.780;20.408;2022-09-21T12:37:46;5.25;;;4.43;;
38847;SDS011;24602;44.780;20.408;2022-09-21T12:40:21;6.18;;;4.63;;
38847;SDS011;24602;44.780;20.408;2022-09-21T12:43:05;6.47;;;4.95;;
38847;SDS011;24602;44.780;20.408;2022-09-21T12:45:54;13.02;;;8.32;;
38847;SDS011;24602;44.780;20.408;2022-09-21T12:48:43;14.13;;;8.30;;
38847;SDS011;24602;44.780;20.408;2022-09-21T12:51:33;5.00;;;4.45;;
38847;SDS011;24602;44.780;20.408;2022-09-21T12:54:17;4.17;;;3.47;;
38847;SDS011;24602;44.780;20.408;2022-09-21T13:00:12;6.88;;;4.10;;
38847;SDS011;24602;44.780;20.408;2022-09-21T13:03:00;5.25;;;3.45;;
38847;SDS011;24602;44.780;20.408;2022-09-21T13:08:40;15.07;;;8.30;;
38847;SDS011;24602;44.780;20.408;2022-09-21T13:11:17;5.47;;;3.83;;
38847;SDS011;24602;44.780;20.408;2022-09-21T13:13:59;6.80;;;3.92;;
38847;SDS011;24602;44.780;20.408;2022-09-21T13:16:32;6.28;;;4.80;;
38847;SDS011;24602;44.780;20.408;2022-09-21T13:19:21;5.90;;;3.28;;
38847;SDS011;24602;44.780;20.408;2022-09-21T13:37:22;3.55;;;1.95;;
38847;SDS011;24602;44.780;20.408;2022-09-21T13:42:49;3.30;;;1.40;;
38847;SDS011;24602;44.780;20.408;2022-09-21T13:47:51;18.02;;;9.70;;
38847;SDS011;24602;44.780;20.408;2022-09-21T13:50:41;1.88;;;1.33;;
38847;SDS011;24602;44.780;20.408;2022-09-21T13:53:24;4.18;;;3.00;;
38847;SDS011;24602;44.780;20.408;2022-09-21T13:56:14;2.97;;;1.77;;
38847;SDS011;24602;44.780;20.408;2022-09-21T13:58:49;1.73;;;1.20;;
38847;SDS011;24602;44.780;20.408;2022-09-21T14:01:32;2.33;;;1.83;;
38847;SDS011;24602;44.780;20.408;2022-09-21T14:04:23;3.10;;;1.67;;
38847;SDS011;24602;44.780;20.408;2022-09-21T14:07:06;2.70;;;2.17;;
38847;SDS011;24602;44.780;20.408;2022-09-21T14:09:43;4.50;;;3.05;;
38847;SDS011;24602;44.780;20.408;2022-09-21T14:12:41;1.50;;;1.05;;
38847;SDS011;24602;44.780;20.408;2022-09-21T14:21:28;1.08;;;0.63;;
38847;SDS011;24602;44.780;20.408;2022-09-21T14:24:08;2.40;;;0.60;;
38847;SDS011;24602;44.780;20.408;2022-09-21T14:27:37;1.67;;;1.23;;
38847;SDS011;24602;44.780;20.408;2022-09-21T14:32:44;1.23;;;0.85;;
38847;SDS011;24602;44.780;20.408;2022-09-21T14:35:23;2.20;;;0.85;;
38847;SDS011;24602;44.780;20.408;2022-09-21T14:38:01;1.42;;;0.90;;
38847;SDS011;24602;44.780;20.408;2022-09-21T14:40:44;1.17;;;0.75;;
38847;SDS011;24602;44.780;20.408;2022-09-21T14:43:24;1.42;;;0.85;;
38847;SDS011;24602;44.780;20.408;2022-09-21T15:00:49;1.65;;;0.98;;
38847;SDS011;24602;44.780;20.408;2022-09-21T15:03:45;0.90;;;0.60;;
38847;SDS011;24602;44.780;20.408;2022-09-21T15:06:50;3.60;;;1.20;;
38847;SDS011;24602;44.780;20.408;2022-09-21T15:13:13;1.48;;;0.55;;
38847;SDS011;24602;44.780;20.408;2022-09-21T15:16:08;0.70;;;0.50;;
38847;SDS011;24602;44.780;20.408;2022-09-21T15:21:55;5.03;;;0.70;;
38847;SDS011;24602;44.780;20.408;2022-09-21T15:24:51;0.90;;;0.50;;
38847;SDS011;24602;44.780;20.408;2022-09-21T15:27:30;1.42;;;0.70;;
38847;SDS011;24602;44.780;20.408;2022-09-21T15:30:04;2.10;;;0.90;;
38847;SDS011;24602;44.780;20.408;2022-09-21T15:32:40;2.88;;;0.88;;
38847;SDS011;24602;44.780;20.408;2022-09-21T15:35:26;1.05;;;0.60;;
38847;SDS011;24602;44.780;20.408;2022-09-21T15:38:28;6.35;;;1.10;;
38847;SDS011;24602;44.780;20.408;2022-09-21T15:41:03;1.43;;;0.63;;
38847;SDS011;24602;44.780;20.408;2022-09-21T15:43:40;1.42;;;1.02;;
38847;SDS011;24602;44.780;20.408;2022-09-21T15:46:12;1.63;;;0.80;;
38847;SDS011;24602;44.780;20.408;2022-09-21T15:48:40;2.88;;;0.80;;
38847;SDS011;24602;44.780;20.408;2022-09-21T15:51:17;2.10;;;0.85;;
38847;SDS011;24602;44.780;20.408;2022-09-21T15:54:05;1.60;;;0.80;;
38847;SDS011;24602;44.780;20.408;2022-09-21T15:56:35;2.05;;;1.20;;
38847;SDS011;24602;44.780;20.408;2022-09-21T15:59:15;1.77;;;0.93;;
38847;SDS011;24602;44.780;20.408;2022-09-21T16:01:48;2.72;;;1.60;;
38847;SDS011;24602;44.780;20.408;2022-09-21T16:04:27;1.73;;;0.90;;
38847;SDS011;24602;44.780;20.408;2022-09-21T16:12:27;4.05;;;1.67;;
38847;SDS011;24602;44.780;20.408;2022-09-21T16:15:23;5.32;;;3.08;;
38847;SDS011;24602;44.780;20.408;2022-09-21T16:18:10;11.00;;;5.60;;
38847;SDS011;24602;44.780;20.408;2022-09-21T16:21:19;1.83;;;1.40;;
38847;SDS011;24602;44.780;20.408;2022-09-21T16:23:54;2.53;;;1.48;;
38847;SDS011;24602;44.780;20.408;2022-09-21T16:26:29;1.75;;;1.50;;
38847;SDS011;24602;44.780;20.408;2022-09-21T16:29:20;2.22;;;1.60;;
38847;SDS011;24602;44.780;20.408;2022-09-21T16:37:44;4.78;;;2.83;;
38847;SDS011;24602;44.780;20.408;2022-09-21T16:40:15;5.88;;;3.17;;
38847;SDS011;24602;44.780;20.408;2022-09-21T16:42:46;5.78;;;3.13;;
38847;SDS011;24602;44.780;20.408;2022-09-21T16:45:22;3.88;;;2.50;;
38847;SDS011;24602;44.780;20.408;2022-09-21T16:47:52;3.65;;;2.28;;
38847;SDS011;24602;44.780;20.408;2022-09-21T16:50:28;4.63;;;2.67;;
38847;SDS011;24602;44.780;20.408;2022-09-21T16:52:59;5.30;;;2.33;;
38847;SDS011;24602;44.780;20.408;2022-09-21T16:55:27;3.55;;;2.42;;
38847;SDS011;24602;44.780;20.408;2022-09-21T16:57:58;6.78;;;2.70;;
38847;SDS011;24602;44.780;20.408;2022-09-21T17:00:33;4.00;;;2.70;;
38847;SDS011;24602;44.780;20.408;2022-09-21T17:03:05;7.30;;;3.60;;
38847;SDS011;24602;44.780;20.408;2022-09-21T17:05:36;7.65;;;3.65;;
38847;SDS011;24602;44.780;20.408;2022-09-21T17:08:05;6.70;;;4.28;;
38847;SDS011;24602;44.780;20.408;2022-09-21T17:10:38;5.63;;;3.63;;
38847;SDS011;24602;44.780;20.408;2022-09-21T17:13:11;7.35;;;5.30;;
38847;SDS011;24602;44.780;20.408;2022-09-21T17:15:46;7.97;;;5.03;;
38847;SDS011;24602;44.780;20.408;2022-09-21T17:18:16;7.40;;;4.15;;
38847;SDS011;24602;44.780;20.408;2022-09-21T17:20:50;11.77;;;4.82;;
38847;SDS011;24602;44.780;20.408;2022-09-21T17:23:23;15.48;;;8.55;;
38847;SDS011;24602;44.780;20.408;2022-09-21T17:26:00;14.98;;;9.98;;
38847;SDS011;24602;44.780;20.408;2022-09-21T17:28:28;14.88;;;9.95;;
38847;SDS011;24602;44.780;20.408;2022-09-21T17:30:57;19.70;;;10.23;;
38847;SDS011;24602;44.780;20.408;2022-09-21T17:33:29;15.75;;;8.52;;
38847;SDS011;24602;44.780;20.408;2022-09-21T17:36:00;16.17;;;9.27;;
38847;SDS011;24602;44.780;20.408;2022-09-21T17:38:31;12.52;;;7.10;;
38847;SDS011;24602;44.780;20.408;2022-09-21T17:49:39;17.48;;;10.43;;
38847;SDS011;24602;44.780;20.408;2022-09-21T17:52:12;15.70;;;10.60;;
38847;SDS011;24602;44.780;20.408;2022-09-21T17:55:12;15.30;;;10.70;;
38847;SDS011;24602;44.780;20.408;2022-09-21T18:03:36;30.67;;;16.17;;
38847;SDS011;24602;44.780;20.408;2022-09-21T18:06:13;25.63;;;16.65;;
38847;SDS011;24602;44.780;20.408;2022-09-21T18:08:45;25.20;;;15.25;;
38847;SDS011;24602;44.780;20.408;2022-09-21T18:23:56;12.73;;;8.23;;
38847;SDS011;24602;44.780;20.408;2022-09-21T18:26:32;11.13;;;7.38;;
38847;SDS011;24602;44.780;20.408;2022-09-21T18:29:05;16.83;;;7.93;;
38847;SDS011;24602;44.780;20.408;2022-09-21T18:37:50;13.23;;;7.47;;
38847;SDS011;24602;44.780;20.408;2022-09-21T18:55:27;13.75;;;9.93;;
38847;SDS011;24602;44.780;20.408;2022-09-21T18:58:03;15.63;;;9.35;;
38847;SDS011;24602;44.780;20.408;2022-09-21T19:00:35;16.35;;;9.85;;
38847;SDS011;24602;44.780;20.408;2022-09-21T19:03:09;21.33;;;11.68;;
38847;SDS011;24602;44.780;20.408;2022-09-21T19:14:53;17.25;;;9.75;;
38847;SDS011;24602;44.780;20.408;2022-09-21T19:18:19;15.00;;;9.05;;
38847;SDS011;24602;44.780;20.408;2022-09-21T19:21:12;18.67;;;13.02;;
38847;SDS011;24602;44.780;20.408;2022-09-21T19:32:45;18.75;;;10.45;;
38847;SDS011;24602;44.780;20.408;2022-09-21T19:35:30;14.95;;;9.85;;
38847;SDS011;24602;44.780;20.408;2022-09-21T19:38:01;19.23;;;11.77;;
38847;SDS011;24602;44.780;20.408;2022-09-21T19:40:32;26.35;;;14.27;;
38847;SDS011;24602;44.780;20.408;2022-09-21T19:43:28;26.42;;;13.30;;
38847;SDS011;24602;44.780;20.408;2022-09-21T19:51:56;17.85;;;11.85;;
38847;SDS011;24602;44.780;20.408;2022-09-21T19:54:38;20.25;;;12.45;;
38847;SDS011;24602;44.780;20.408;2022-09-21T19:57:36;20.58;;;12.40;;
38847;SDS011;24602;44.780;20.408;2022-09-21T20:00:26;18.42;;;12.38;;
38847;SDS011;24602;44.780;20.408;2022-09-21T20:03:02;18.45;;;11.88;;
38847;SDS011;24602;44.780;20.408;2022-09-21T20:06:00;17.45;;;11.93;;
38847;SDS011;24602;44.780;20.408;2022-09-21T20:11:42;17.65;;;11.52;;
38847;SDS011;24602;44.780;20.408;2022-09-21T20:17:46;21.88;;;13.48;;
38847;SDS011;24602;44.780;20.408;2022-09-21T20:20:25;20.65;;;12.80;;
38847;SDS011;24602;44.780;20.408;2022-09-21T20:22:58;14.82;;;10.95;;